Strona główna
METAR-TAF:

METAR-TAF

Lotnisko :

Port lotniczy Cuneo-Levaldigi

Cuneo, Włochy

Szerokość geograficzna: 44-32-47N, Długość geograficzna: 007-37-20E, wysokość: 386 m

Aktualna obserwacja pogody

Raport powstał 43 minut temu, godzina 18:50 UTC
Wiatr 1 kt z kierunków zmiennych
Temperatura 5°C
Wilgotność 93%
Ciśnienie 1017 hPa
Widzialność: 8000 m
Rozproszone chmury na wysokości 2000 ft

METAR: LIMZ 081850Z VRB01KT 8000 SCT020 05/04 Q1017

czas: 20:33 (19:33 UTC)

Prognoza

Raport powstał 2 godziny i 33 minut temu, godzina 17:00 UTC
Prognoza ważna od 08 godzina 18 UTC do 09 godzina 18 UTC
Wiatr 5 kt z kierunków zmiennych
Widzialność: 7000 m
Rozproszone chmury na wysokości 3000 ft

TAF: LIMZ 081700Z 0818/0918 VRB05KT 7000 SCT030

Obserwacja i prognoza pogody dla ponad 4000 lotnisk (raport METAR i TAF).

Dostępne stacje oznaczono żółtymi i czerwonymi punktami na mapie.

Najedź kursorem aby zobaczyć nazwę stacji.

Kliknij aby zobaczyć obserwacje i prognozy pogody.

Aby zmienić mapę: kliknij na zielony przycisk z czarnym krzyżykiem, aby powiększyć; na zielony przycisk z myślnikiem, aby pomniejszyć; na zielone strzałki, aby przejść do map sąsiednich.


METAR-TAF: